Warning: session_start() [function.session-start]: open(/home/content/96/14010696/tmp/sess_ap58idpb6hvn4m75e0enkocrh7, O_RDWR) failed: No such file or directory (2) in /home/content/96/14010696/html/weather/Settings.php on line 336

Warning: session_start() [function.session-start]: Cannot send session cookie - headers already sent by (output started at /home/content/96/14010696/html/weather/Settings.php:336) in /home/content/96/14010696/html/weather/Settings.php on line 336

Warning: session_start() [function.session-start]: Cannot send session cache limiter - headers already sent (output started at /home/content/96/14010696/html/weather/Settings.php:336) in /home/content/96/14010696/html/weather/Settings.php on line 336

Warning: Cannot modify header information - headers already sent by (output started at /home/content/96/14010696/html/weather/Settings.php:336) in /home/content/96/14010696/html/weather/top.php on line 43
Custom file does not exist C:\wdisplay\webfiles\testtags.txt Page13Designs.com - Nearby METAR Reports

Nearby METAR Reports

 

KLEE - Leesburg, Florida, USA
Distance from station: NNE 9mi, 14km
Updated: Mon, 22-Oct-2018 10:53am EDT
Clear
Clear
 Wind from E
Wind: E 9 mph , 15 km/h
Temperature: 77°F , 25°C
Dew Point: 57°F , 14°C
Humidity: 51%
Barometer: 30.21 inHg , 1023 hPa
Clouds: Clear
Visibility: 10 miles , 16 km
2018/10/22 14:53 KLEE 221453Z 09008KT 10SM CLR 25/14 A3021 RMK AO2 SLP228 T02500144 51014
KVVG - The Villages, Florida, USA
Distance from station: NNW 19mi, 30km
Updated: Wed, 14-Feb-2018 2:10pm EST
NOT Current

 Wind from calm
Wind: Calm
Temperature: 73°F , 23°C
Dew Point: 66°F , 19°C
Humidity: 78%
Barometer: 30.29 inHg , 1025.7 hPa
Visibility: 10 miles , 16 km
2018/02/14 19:10 KVVG 141910Z AUTO 00000KT 10SM 23/19 A3029 RMK A01
 
KINF - Inverness, Florida, USA
Distance from station: WNW 29mi, 46km
Updated: Fri, 21-Sep-2018 11:35am EDT
NOT Current
Haze, Mostly cloudy
Haze, Mostly cloudy
 Wind from calm
Wind: Calm
Temperature: 88°F , 31°C
Heat Index: 100°F , 38°C
Dew Point: 77°F , 25°C
Humidity: 70%
Barometer: 30.11 inHg , 1019.6 hPa
Summary: Haze
Clouds: Mostly cloudy
Visibility: 5 miles , 8 km
Cloud details: Mostly cloudy 2700 ft
Mostly cloudy 3700 ft
Mostly cloudy 5000 ft
2018/09/21 15:35 KINF 211535Z AUTO 00000KT 5SM HZ BKN027 BKN037 BKN050 31/25 A3011 RMK AO2
KORL - Orlando, Florida, USA
Distance from station: ESE 34mi, 54km
Updated: Mon, 22-Oct-2018 10:53am EDT
Clear
Clear
 Wind from E
Wind: E 15 mph , 24 km/h, Gust: 21 mph , 33 km/h
Temperature: 79°F , 26°C
Dew Point: 57°F , 14°C
Humidity: 48%
Barometer: 30.19 inHg , 1022.4 hPa
Clouds: Clear
Visibility: 10 miles , 16 km
2018/10/22 14:53 KORL 221453Z 09013G18KT 10SM CLR 26/14 A3019 RMK AO2 SLP226 T02610144 50013
 
KZPH - Zephyrhills, Florida, USA
Distance from station: SSW 36mi, 59km
Updated: Mon, 22-Oct-2018 11:15am EDT
Clear
Clear
 Wind from ENE
Wind: ENE 13 mph , 20 km/h, Gust: 17 mph , 28 km/h
Temperature: 77°F , 25°C
Dew Point: 59°F , 15°C
Humidity: 54%
Barometer: 30.19 inHg , 1022.4 hPa
Clouds: Clear
Visibility: 10 miles , 16 km
2018/10/22 15:15 KZPH 221515Z AUTO 07011G15KT 10SM CLR 25/15 A3019 RMK AO2 T02520147
KMCO - Orlando, Florida, USA
Distance from station: ESE 37mi, 60km
Updated: Mon, 22-Oct-2018 10:53am EDT
Mostly cloudy
Mostly cloudy
 Wind from E
Wind: E 15 mph , 24 km/h, Gust: 21 mph , 33 km/h
Temperature: 77°F , 25°C
Dew Point: 57°F , 14°C
Humidity: 51%
Barometer: 30.18 inHg , 1022 hPa
Clouds: Mostly cloudy
Visibility: 10 miles , 16 km
Cloud details: Few Clouds 4000 ft
Mostly cloudy 25000 ft
2018/10/22 14:53 KMCO 221453Z 08013G18KT 10SM FEW040 BKN250 25/14 A3018 RMK AO2 SLP219 T02500144 50013
 
KISM - Kissimmee/Orland, Florida, USA
Distance from station: SE 39mi, 62km
Updated: Mon, 22-Oct-2018 6:55am EDT
NOT Current
Clear
Clear
 Wind from NE
Wind: NE 6 mph , 9 km/h
Temperature: 66°F , 19°C
Dew Point: 57°F , 14°C
Humidity: 73%
Barometer: 30.14 inHg , 1020.7 hPa
Clouds: Clear
Visibility: 10 miles , 16 km
2018/10/22 10:55 KISM 221055Z 05005KT 10SM CLR 19/14 A3014
KBKV - Brooksville, Florida, USA
Distance from station: WSW 39mi, 63km
Updated: Mon, 22-Oct-2018 10:53am EDT
Clear
Clear
 Wind from E
Wind: E 10 mph , 17 km/h, Gust: 20 mph , 31 km/h
Temperature: 75°F , 24°C
Dew Point: 57°F , 14°C
Humidity: 54%
Barometer: 30.19 inHg , 1022.4 hPa
Clouds: Clear
Visibility: 10 miles , 16 km
2018/10/22 14:53 KBKV 221453Z 09009G17KT 10SM CLR 24/14 A3019 RMK AO2 SLP223 T02440144 51011
 
KOCF - Ocala Muni, Florida, USA
Distance from station: NW 39mi, 63km
Updated: Mon, 22-Oct-2018 10:51am EDT
Clear
Clear
 Wind from ENE
Wind: ENE 6 mph , 9 km/h
Temperature: 73°F , 23°C
Dew Point: 57°F , 14°C
Humidity: 57%
Barometer: 30.22 inHg , 1023.4 hPa
Clouds: Clear
Visibility: 10 miles , 16 km
2018/10/22 14:51 KOCF 221451Z 06005KT 10SM CLR 23/14 A3022 RMK AO2 SLP235 T02280139 51012 $
KSFB - Sanford/Orlando, Florida, USA
Distance from station: E 39mi, 63km
Updated: Mon, 22-Oct-2018 10:53am EDT
Clear
Clear
 Wind from E
Wind: E 12 mph , 19 km/h, Gust: 20 mph , 31 km/h
Temperature: 79°F , 26°C
Dew Point: 57°F , 14°C
Humidity: 48%
Barometer: 30.19 inHg , 1022.4 hPa
Clouds: Clear
Visibility: 10 miles , 16 km
2018/10/22 14:53 KSFB 221453Z 10010G17KT 10SM CLR 26/14 A3019 RMK AO2 SLP222 T02610144 51013
 
KDED - Deland, Florida, USA
Distance from station: NE 43mi, 70km
Updated: Mon, 22-Oct-2018 10:55am EDT
Partly cloudy
Partly cloudy
 Wind from E
Wind: E 12 mph , 19 km/h
Temperature: 77°F , 25°C
Dew Point: 57°F , 14°C
Humidity: 51%
Barometer: 30.20 inHg , 1022.7 hPa
Clouds: Partly cloudy
Visibility: 10 miles , 16 km
Cloud details: Partly cloudy 4700 ft
2018/10/22 14:55 KDED 221455Z AUTO 08010KT 10SM SCT047 25/14 A3020 RMK AO2
KCGC - Crystal River, Florida, USA
Distance from station: WNW 44mi, 71km
Updated: Mon, 22-Oct-2018 10:55am EDT
Clear
Clear
 Wind from E
Wind: E 9 mph , 15 km/h
Temperature: 73°F , 23°C
Dew Point: 59°F , 15°C
Humidity: 61%
Barometer: 30.20 inHg , 1022.7 hPa
Clouds: Clear
Visibility: 10 miles , 16 km
2018/10/22 14:55 KCGC 221455Z AUTO 09008KT 060V120 10SM CLR 23/15 A3020 RMK AO2
 
KGIF - Winter Haven, Florida, USA
Distance from station: S 44mi, 71km
Updated: Mon, 22-Oct-2018 10:53am EDT
Clear
Clear
 Wind from E
Wind: E 15 mph , 24 km/h
Temperature: 79°F , 26°C
Dew Point: 59°F , 15°C
Humidity: 51%
Barometer: 30.19 inHg , 1022.4 hPa
Clouds: Clear
Visibility: 10 miles , 16 km
2018/10/22 14:53 KGIF 221453Z AUTO 08013KT 10SM CLR 26/15 A3019 RMK AO2 SLP220 T02610150 51013